sensor_id;sensor_type;location;lat;lon;timestamp;temperature;humidity
32173;DHT22;18679;45.190;5.722;2023-12-20T00:00:25;9.60;56.30
32173;DHT22;18679;45.190;5.722;2023-12-20T00:03:26;9.60;56.50
32173;DHT22;18679;45.190;5.722;2023-12-20T00:06:27;9.50;56.50
32173;DHT22;18679;45.190;5.722;2023-12-20T00:09:28;9.50;56.60
32173;DHT22;18679;45.190;5.722;2023-12-20T00:12:29;9.50;56.60
32173;DHT22;18679;45.190;5.722;2023-12-20T00:15:30;9.60;56.60
32173;DHT22;18679;45.190;5.722;2023-12-20T00:18:32;9.50;56.50
32173;DHT22;18679;45.190;5.722;2023-12-20T00:21:34;9.50;56.50
32173;DHT22;18679;45.190;5.722;2023-12-20T00:24:35;9.50;56.70
32173;DHT22;18679;45.190;5.722;2023-12-20T00:27:36;9.40;56.70
32173;DHT22;18679;45.190;5.722;2023-12-20T00:30:37;9.40;57.30
32173;DHT22;18679;45.190;5.722;2023-12-20T00:33:39;9.40;56.80
32173;DHT22;18679;45.190;5.722;2023-12-20T00:36:46;9.30;57.00
32173;DHT22;18679;45.190;5.722;2023-12-20T00:39:48;9.30;57.20
32173;DHT22;18679;45.190;5.722;2023-12-20T00:42:48;9.20;57.50
32173;DHT22;18679;45.190;5.722;2023-12-20T00:45:49;9.20;57.60
32173;DHT22;18679;45.190;5.722;2023-12-20T00:48:50;9.20;57.70
32173;DHT22;18679;45.190;5.722;2023-12-20T00:51:51;9.20;57.80
32173;DHT22;18679;45.190;5.722;2023-12-20T00:54:53;9.30;57.90
32173;DHT22;18679;45.190;5.722;2023-12-20T00:57:54;9.30;57.90
32173;DHT22;18679;45.190;5.722;2023-12-20T01:00:54;9.30;57.80
32173;DHT22;18679;45.190;5.722;2023-12-20T01:03:57;9.40;57.80
32173;DHT22;18679;45.190;5.722;2023-12-20T01:06:58;9.40;57.70
32173;DHT22;18679;45.190;5.722;2023-12-20T01:09:59;9.40;57.60
32173;DHT22;18679;45.190;5.722;2023-12-20T01:13:02;9.40;57.60
32173;DHT22;18679;45.190;5.722;2023-12-20T01:16:03;9.50;57.60
32173;DHT22;18679;45.190;5.722;2023-12-20T01:19:04;9.40;57.50
32173;DHT22;18679;45.190;5.722;2023-12-20T01:22:05;9.50;57.50
32173;DHT22;18679;45.190;5.722;2023-12-20T01:25:06;9.50;57.50
32173;DHT22;18679;45.190;5.722;2023-12-20T01:28:09;9.50;57.60
32173;DHT22;18679;45.190;5.722;2023-12-20T01:31:09;9.40;57.60
32173;DHT22;18679;45.190;5.722;2023-12-20T01:34:12;9.30;57.70
32173;DHT22;18679;45.190;5.722;2023-12-20T01:37:14;9.30;57.80
32173;DHT22;18679;45.190;5.722;2023-12-20T01:40:15;9.30;57.90
32173;DHT22;18679;45.190;5.722;2023-12-20T01:43:17;9.40;57.90
32173;DHT22;18679;45.190;5.722;2023-12-20T01:46:19;9.40;57.90
32173;DHT22;18679;45.190;5.722;2023-12-20T01:49:21;9.40;57.80
32173;DHT22;18679;45.190;5.722;2023-12-20T01:52:23;9.40;57.80
32173;DHT22;18679;45.190;5.722;2023-12-20T01:55:27;9.50;57.70
32173;DHT22;18679;45.190;5.722;2023-12-20T01:58:32;9.50;57.60
32173;DHT22;18679;45.190;5.722;2023-12-20T02:01:33;9.60;57.50
32173;DHT22;18679;45.190;5.722;2023-12-20T02:04:34;9.60;57.50
32173;DHT22;18679;45.190;5.722;2023-12-20T02:07:35;9.60;57.50
32173;DHT22;18679;45.190;5.722;2023-12-20T02:10:36;9.50;57.50
32173;DHT22;18679;45.190;5.722;2023-12-20T02:13:40;9.60;57.50
32173;DHT22;18679;45.190;5.722;2023-12-20T02:16:43;9.50;57.60
32173;DHT22;18679;45.190;5.722;2023-12-20T02:19:44;9.50;57.60
32173;DHT22;18679;45.190;5.722;2023-12-20T02:22:46;9.40;57.70
32173;DHT22;18679;45.190;5.722;2023-12-20T02:25:47;9.30;57.90
32173;DHT22;18679;45.190;5.722;2023-12-20T02:28:49;9.30;58.70
32173;DHT22;18679;45.190;5.722;2023-12-20T02:31:50;9.20;58.20
32173;DHT22;18679;45.190;5.722;2023-12-20T02:34:54;9.20;58.40
32173;DHT22;18679;45.190;5.722;2023-12-20T02:37:55;9.20;58.50
32173;DHT22;18679;45.190;5.722;2023-12-20T02:40:57;9.10;58.60
32173;DHT22;18679;45.190;5.722;2023-12-20T02:44:01;9.20;58.80
32173;DHT22;18679;45.190;5.722;2023-12-20T02:47:04;9.10;58.80
32173;DHT22;18679;45.190;5.722;2023-12-20T02:50:07;9.10;58.90
32173;DHT22;18679;45.190;5.722;2023-12-20T02:53:09;9.10;59.00
32173;DHT22;18679;45.190;5.722;2023-12-20T02:56:10;9.10;59.10
32173;DHT22;18679;45.190;5.722;2023-12-20T02:59:12;9.10;59.20
32173;DHT22;18679;45.190;5.722;2023-12-20T03:02:13;9.10;59.20
32173;DHT22;18679;45.190;5.722;2023-12-20T03:05:14;9.10;59.20
32173;DHT22;18679;45.190;5.722;2023-12-20T03:08:15;9.10;59.20
32173;DHT22;18679;45.190;5.722;2023-12-20T03:11:15;9.10;59.20
32173;DHT22;18679;45.190;5.722;2023-12-20T03:14:16;9.20;59.10
32173;DHT22;18679;45.190;5.722;2023-12-20T03:17:18;9.30;59.00
32173;DHT22;18679;45.190;5.722;2023-12-20T03:20:21;9.30;58.90
32173;DHT22;18679;45.190;5.722;2023-12-20T03:23:24;9.30;58.80
32173;DHT22;18679;45.190;5.722;2023-12-20T03:26:26;9.40;58.80
32173;DHT22;18679;45.190;5.722;2023-12-20T03:29:27;9.40;58.80
32173;DHT22;18679;45.190;5.722;2023-12-20T03:32:28;9.40;58.80
32173;DHT22;18679;45.190;5.722;2023-12-20T03:35:29;9.40;58.80
32173;DHT22;18679;45.190;5.722;2023-12-20T03:38:30;9.40;58.80
32173;DHT22;18679;45.190;5.722;2023-12-20T03:41:31;9.40;58.90
32173;DHT22;18679;45.190;5.722;2023-12-20T03:44:32;9.40;58.90
32173;DHT22;18679;45.190;5.722;2023-12-20T03:47:34;9.40;58.90
32173;DHT22;18679;45.190;5.722;2023-12-20T03:50:35;9.40;58.90
32173;DHT22;18679;45.190;5.722;2023-12-20T03:53:37;9.50;58.90
32173;DHT22;18679;45.190;5.722;2023-12-20T03:56:40;9.50;58.80
32173;DHT22;18679;45.190;5.722;2023-12-20T03:59:42;9.60;58.80
32173;DHT22;18679;45.190;5.722;2023-12-20T04:02:44;9.60;58.60
32173;DHT22;18679;45.190;5.722;2023-12-20T04:05:46;9.70;58.60
32173;DHT22;18679;45.190;5.722;2023-12-20T04:08:47;9.60;58.40
32173;DHT22;18679;45.190;5.722;2023-12-20T04:11:48;9.60;58.40
32173;DHT22;18679;45.190;5.722;2023-12-20T04:14:50;9.60;58.30
32173;DHT22;18679;45.190;5.722;2023-12-20T04:17:52;9.60;58.30
32173;DHT22;18679;45.190;5.722;2023-12-20T04:20:53;9.50;58.40
32173;DHT22;18679;45.190;5.722;2023-12-20T04:23:54;9.50;58.60
32173;DHT22;18679;45.190;5.722;2023-12-20T04:26:54;9.50;58.70
32173;DHT22;18679;45.190;5.722;2023-12-20T04:29:56;9.50;58.80
32173;DHT22;18679;45.190;5.722;2023-12-20T04:32:56;9.50;58.80
32173;DHT22;18679;45.190;5.722;2023-12-20T04:35:59;9.50;58.90
32173;DHT22;18679;45.190;5.722;2023-12-20T04:39:00;9.50;59.00
32173;DHT22;18679;45.190;5.722;2023-12-20T04:42:02;9.50;59.20
32173;DHT22;18679;45.190;5.722;2023-12-20T04:45:03;9.50;59.30
32173;DHT22;18679;45.190;5.722;2023-12-20T04:48:04;9.50;59.50
32173;DHT22;18679;45.190;5.722;2023-12-20T04:51:05;9.50;59.50
32173;DHT22;18679;45.190;5.722;2023-12-20T04:54:06;9.50;59.70
32173;DHT22;18679;45.190;5.722;2023-12-20T04:57:07;9.50;59.80
32173;DHT22;18679;45.190;5.722;2023-12-20T05:00:09;9.50;59.90
32173;DHT22;18679;45.190;5.722;2023-12-20T05:03:15;9.50;60.10
32173;DHT22;18679;45.190;5.722;2023-12-20T05:06:16;9.40;60.20
32173;DHT22;18679;45.190;5.722;2023-12-20T05:09:18;9.40;60.50
32173;DHT22;18679;45.190;5.722;2023-12-20T05:12:19;9.40;60.80
32173;DHT22;18679;45.190;5.722;2023-12-20T05:15:20;9.30;61.00
32173;DHT22;18679;45.190;5.722;2023-12-20T05:18:22;9.30;61.30
32173;DHT22;18679;45.190;5.722;2023-12-20T05:21:25;9.30;61.60
32173;DHT22;18679;45.190;5.722;2023-12-20T05:24:25;9.20;61.90
32173;DHT22;18679;45.190;5.722;2023-12-20T05:27:26;9.20;62.00
32173;DHT22;18679;45.190;5.722;2023-12-20T05:30:29;9.20;62.10
32173;DHT22;18679;45.190;5.722;2023-12-20T05:33:30;9.20;62.10
32173;DHT22;18679;45.190;5.722;2023-12-20T05:36:31;9.20;62.20
32173;DHT22;18679;45.190;5.722;2023-12-20T05:39:34;9.30;62.20
32173;DHT22;18679;45.190;5.722;2023-12-20T05:42:37;9.30;62.20
32173;DHT22;18679;45.190;5.722;2023-12-20T05:45:40;9.20;62.20
32173;DHT22;18679;45.190;5.722;2023-12-20T05:48:43;9.30;62.40
32173;DHT22;18679;45.190;5.722;2023-12-20T05:51:45;9.20;62.30
32173;DHT22;18679;45.190;5.722;2023-12-20T05:54:46;9.20;62.40
32173;DHT22;18679;45.190;5.722;2023-12-20T05:57:48;9.30;62.40
32173;DHT22;18679;45.190;5.722;2023-12-20T06:00:49;9.40;62.40
32173;DHT22;18679;45.190;5.722;2023-12-20T06:03:50;9.30;62.30
32173;DHT22;18679;45.190;5.722;2023-12-20T06:06:52;9.30;62.40
32173;DHT22;18679;45.190;5.722;2023-12-20T06:09:53;9.30;62.30
32173;DHT22;18679;45.190;5.722;2023-12-20T06:12:57;9.30;62.40
32173;DHT22;18679;45.190;5.722;2023-12-20T06:16:01;9.30;62.40
32173;DHT22;18679;45.190;5.722;2023-12-20T06:19:02;9.30;62.40
32173;DHT22;18679;45.190;5.722;2023-12-20T06:22:03;9.30;62.30
32173;DHT22;18679;45.190;5.722;2023-12-20T06:25:04;9.30;62.20
32173;DHT22;18679;45.190;5.722;2023-12-20T06:28:06;9.30;62.20
32173;DHT22;18679;45.190;5.722;2023-12-20T06:31:07;9.40;62.30
32173;DHT22;18679;45.190;5.722;2023-12-20T06:34:08;9.40;62.40
32173;DHT22;18679;45.190;5.722;2023-12-20T06:37:08;9.40;62.20
32173;DHT22;18679;45.190;5.722;2023-12-20T06:40:10;9.40;62.20
32173;DHT22;18679;45.190;5.722;2023-12-20T06:43:13;9.40;62.20
32173;DHT22;18679;45.190;5.722;2023-12-20T06:46:14;9.40;62.20
32173;DHT22;18679;45.190;5.722;2023-12-20T06:49:14;9.50;62.30
32173;DHT22;18679;45.190;5.722;2023-12-20T06:52:17;9.40;62.50
32173;DHT22;18679;45.190;5.722;2023-12-20T06:55:19;9.40;62.70
32173;DHT22;18679;45.190;5.722;2023-12-20T06:58:20;9.40;62.80
32173;DHT22;18679;45.190;5.722;2023-12-20T07:01:23;9.40;62.80
32173;DHT22;18679;45.190;5.722;2023-12-20T07:04:23;9.40;62.90
32173;DHT22;18679;45.190;5.722;2023-12-20T07:07:25;9.40;62.90
32173;DHT22;18679;45.190;5.722;2023-12-20T07:10:28;9.40;62.90
32173;DHT22;18679;45.190;5.722;2023-12-20T07:13:29;9.50;63.00
32173;DHT22;18679;45.190;5.722;2023-12-20T07:16:30;9.40;62.90
32173;DHT22;18679;45.190;5.722;2023-12-20T07:19:33;9.50;63.00
32173;DHT22;18679;45.190;5.722;2023-12-20T07:22:34;9.40;63.00
32173;DHT22;18679;45.190;5.722;2023-12-20T07:25:35;9.50;63.20
32173;DHT22;18679;45.190;5.722;2023-12-20T07:28:36;9.50;63.20
32173;DHT22;18679;45.190;5.722;2023-12-20T07:31:37;9.50;63.30
32173;DHT22;18679;45.190;5.722;2023-12-20T07:34:38;9.50;63.20
32173;DHT22;18679;45.190;5.722;2023-12-20T07:37:39;9.50;63.20
32173;DHT22;18679;45.190;5.722;2023-12-20T07:40:40;9.50;63.30
32173;DHT22;18679;45.190;5.722;2023-12-20T07:43:43;9.50;63.30
32173;DHT22;18679;45.190;5.722;2023-12-20T07:46:45;9.50;63.30
32173;DHT22;18679;45.190;5.722;2023-12-20T07:49:46;9.50;63.40
32173;DHT22;18679;45.190;5.722;2023-12-20T07:52:48;9.50;63.40
32173;DHT22;18679;45.190;5.722;2023-12-20T07:55:49;9.50;63.50
32173;DHT22;18679;45.190;5.722;2023-12-20T07:58:50;9.50;63.60
32173;DHT22;18679;45.190;5.722;2023-12-20T08:01:51;9.50;63.70
32173;DHT22;18679;45.190;5.722;2023-12-20T08:04:53;9.60;63.70
32173;DHT22;18679;45.190;5.722;2023-12-20T08:07:55;9.60;63.70
32173;DHT22;18679;45.190;5.722;2023-12-20T08:10:56;9.60;63.60
32173;DHT22;18679;45.190;5.722;2023-12-20T08:13:59;9.60;63.50
32173;DHT22;18679;45.190;5.722;2023-12-20T08:17:01;9.70;63.50
32173;DHT22;18679;45.190;5.722;2023-12-20T08:20:02;9.70;63.30
32173;DHT22;18679;45.190;5.722;2023-12-20T08:23:03;9.70;63.30
32173;DHT22;18679;45.190;5.722;2023-12-20T08:26:07;9.70;63.20
32173;DHT22;18679;45.190;5.722;2023-12-20T08:29:08;9.70;63.30
32173;DHT22;18679;45.190;5.722;2023-12-20T08:32:09;9.80;63.40
32173;DHT22;18679;45.190;5.722;2023-12-20T08:35:10;9.80;63.40
32173;DHT22;18679;45.190;5.722;2023-12-20T08:38:15;9.90;63.40
32173;DHT22;18679;45.190;5.722;2023-12-20T08:41:17;9.90;63.30
32173;DHT22;18679;45.190;5.722;2023-12-20T08:44:18;9.90;63.40
32173;DHT22;18679;45.190;5.722;2023-12-20T08:47:19;9.90;63.30
32173;DHT22;18679;45.190;5.722;2023-12-20T08:50:20;9.90;63.30
32173;DHT22;18679;45.190;5.722;2023-12-20T08:53:21;9.80;63.40
32173;DHT22;18679;45.190;5.722;2023-12-20T08:56:22;9.60;63.40
32173;DHT22;18679;45.190;5.722;2023-12-20T08:59:22;9.80;63.80
32173;DHT22;18679;45.190;5.722;2023-12-20T09:02:24;9.80;63.90
32173;DHT22;18679;45.190;5.722;2023-12-20T09:05:25;9.80;63.90
32173;DHT22;18679;45.190;5.722;2023-12-20T09:08:26;9.90;64.00
32173;DHT22;18679;45.190;5.722;2023-12-20T09:11:28;9.90;63.80
32173;DHT22;18679;45.190;5.722;2023-12-20T09:14:29;10.00;63.80
32173;DHT22;18679;45.190;5.722;2023-12-20T09:17:29;10.10;63.70
32173;DHT22;18679;45.190;5.722;2023-12-20T09:20:30;10.10;63.50
32173;DHT22;18679;45.190;5.722;2023-12-20T09:23:31;10.20;63.40
32173;DHT22;18679;45.190;5.722;2023-12-20T09:26:34;10.20;63.20
32173;DHT22;18679;45.190;5.722;2023-12-20T09:29:35;10.20;63.10
32173;DHT22;18679;45.190;5.722;2023-12-20T09:32:36;10.20;63.20
32173;DHT22;18679;45.190;5.722;2023-12-20T09:35:44;10.30;63.30
32173;DHT22;18679;45.190;5.722;2023-12-20T09:39:09;10.30;63.20
32173;DHT22;18679;45.190;5.722;2023-12-20T09:42:16;10.40;63.20
32173;DHT22;18679;45.190;5.722;2023-12-20T09:45:20;10.40;63.10
32173;DHT22;18679;45.190;5.722;2023-12-20T09:48:28;10.40;63.00
32173;DHT22;18679;45.190;5.722;2023-12-20T09:51:29;10.50;63.00
32173;DHT22;18679;45.190;5.722;2023-12-20T09:54:30;10.60;62.90
32173;DHT22;18679;45.190;5.722;2023-12-20T09:57:34;10.60;62.90
32173;DHT22;18679;45.190;5.722;2023-12-20T10:00:35;10.60;62.90
32173;DHT22;18679;45.190;5.722;2023-12-20T10:03:40;10.60;62.90
32173;DHT22;18679;45.190;5.722;2023-12-20T10:06:44;10.60;63.00
32173;DHT22;18679;45.190;5.722;2023-12-20T10:09:47;10.60;62.90
32173;DHT22;18679;45.190;5.722;2023-12-20T10:13:09;10.70;63.10
32173;DHT22;18679;45.190;5.722;2023-12-20T10:16:10;10.80;63.10
32173;DHT22;18679;45.190;5.722;2023-12-20T10:19:11;10.80;62.80
32173;DHT22;18679;45.190;5.722;2023-12-20T10:22:12;10.90;62.80
32173;DHT22;18679;45.190;5.722;2023-12-20T10:25:14;11.00;62.90
32173;DHT22;18679;45.190;5.722;2023-12-20T10:28:16;11.00;62.60
32173;DHT22;18679;45.190;5.722;2023-12-20T10:31:31;11.10;62.60
32173;DHT22;18679;45.190;5.722;2023-12-20T10:34:33;11.20;62.60
32173;DHT22;18679;45.190;5.722;2023-12-20T10:37:37;11.30;62.30
32173;DHT22;18679;45.190;5.722;2023-12-20T10:40:40;11.30;62.00
32173;DHT22;18679;45.190;5.722;2023-12-20T10:43:46;11.30;62.00
32173;DHT22;18679;45.190;5.722;2023-12-20T10:46:49;11.30;62.30
32173;DHT22;18679;45.190;5.722;2023-12-20T10:49:55;11.40;62.40
32173;DHT22;18679;45.190;5.722;2023-12-20T10:52:57;11.60;62.60
32173;DHT22;18679;45.190;5.722;2023-12-20T10:56:00;11.50;62.70
32173;DHT22;18679;45.190;5.722;2023-12-20T10:59:04;11.70;62.30
32173;DHT22;18679;45.190;5.722;2023-12-20T11:02:06;12.00;62.30
32173;DHT22;18679;45.190;5.722;2023-12-20T11:08:36;13.20;59.40
32173;DHT22;18679;45.190;5.722;2023-12-20T11:12:19;13.40;58.60
32173;DHT22;18679;45.190;5.722;2023-12-20T11:15:23;13.30;58.30
32173;DHT22;18679;45.190;5.722;2023-12-20T11:18:29;13.10;58.40
32173;DHT22;18679;45.190;5.722;2023-12-20T11:21:34;12.90;58.70
32173;DHT22;18679;45.190;5.722;2023-12-20T11:24:44;12.60;58.80
32173;DHT22;18679;45.190;5.722;2023-12-20T11:28:07;12.50;59.30
32173;DHT22;18679;45.190;5.722;2023-12-20T11:31:14;12.40;59.50
32173;DHT22;18679;45.190;5.722;2023-12-20T11:34:17;12.30;59.60
32173;DHT22;18679;45.190;5.722;2023-12-20T11:37:20;12.20;59.70
32173;DHT22;18679;45.190;5.722;2023-12-20T11:40:23;12.20;59.80
32173;DHT22;18679;45.190;5.722;2023-12-20T11:43:38;12.10;59.80
32173;DHT22;18679;45.190;5.722;2023-12-20T11:46:39;12.00;60.00
32173;DHT22;18679;45.190;5.722;2023-12-20T11:49:41;12.00;60.30
32173;DHT22;18679;45.190;5.722;2023-12-20T11:52:43;11.90;60.40
32173;DHT22;18679;45.190;5.722;2023-12-20T11:55:48;11.90;60.60
32173;DHT22;18679;45.190;5.722;2023-12-20T11:58:49;11.90;60.90
32173;DHT22;18679;45.190;5.722;2023-12-20T12:01:51;11.90;61.10
32173;DHT22;18679;45.190;5.722;2023-12-20T12:04:53;11.90;61.20
32173;DHT22;18679;45.190;5.722;2023-12-20T12:07:54;11.90;61.10
32173;DHT22;18679;45.190;5.722;2023-12-20T12:10:55;11.90;61.20
32173;DHT22;18679;45.190;5.722;2023-12-20T12:13:57;11.90;61.40
32173;DHT22;18679;45.190;5.722;2023-12-20T12:16:58;11.90;61.50
32173;DHT22;18679;45.190;5.722;2023-12-20T12:20:05;11.90;61.70
32173;DHT22;18679;45.190;5.722;2023-12-20T12:23:06;11.90;61.70
32173;DHT22;18679;45.190;5.722;2023-12-20T12:26:11;11.90;61.80
32173;DHT22;18679;45.190;5.722;2023-12-20T12:29:15;11.90;61.90
32173;DHT22;18679;45.190;5.722;2023-12-20T12:32:16;11.90;62.10
32173;DHT22;18679;45.190;5.722;2023-12-20T12:35:17;11.90;62.20
32173;DHT22;18679;45.190;5.722;2023-12-20T12:38:22;11.90;62.20
32173;DHT22;18679;45.190;5.722;2023-12-20T12:41:26;11.80;62.20
32173;DHT22;18679;45.190;5.722;2023-12-20T12:44:26;11.90;62.00
32173;DHT22;18679;45.190;5.722;2023-12-20T12:47:27;11.90;61.60
32173;DHT22;18679;45.190;5.722;2023-12-20T12:50:30;11.90;61.30
32173;DHT22;18679;45.190;5.722;2023-12-20T12:53:33;11.90;61.20
32173;DHT22;18679;45.190;5.722;2023-12-20T12:56:36;12.00;61.20
32173;DHT22;18679;45.190;5.722;2023-12-20T12:59:37;12.00;61.10
32173;DHT22;18679;45.190;5.722;2023-12-20T13:02:38;12.10;60.90
32173;DHT22;18679;45.190;5.722;2023-12-20T13:05:42;12.10;60.50
32173;DHT22;18679;45.190;5.722;2023-12-20T13:08:43;12.20;60.20
32173;DHT22;18679;45.190;5.722;2023-12-20T13:11:45;12.20;60.00
32173;DHT22;18679;45.190;5.722;2023-12-20T13:14:46;12.30;59.70
32173;DHT22;18679;45.190;5.722;2023-12-20T13:17:47;12.30;59.50
32173;DHT22;18679;45.190;5.722;2023-12-20T13:20:51;12.30;59.30
32173;DHT22;18679;45.190;5.722;2023-12-20T13:23:52;12.40;59.10
32173;DHT22;18679;45.190;5.722;2023-12-20T13:26:55;12.40;58.80
32173;DHT22;18679;45.190;5.722;2023-12-20T13:29:56;12.50;58.80
32173;DHT22;18679;45.190;5.722;2023-12-20T13:32:57;12.60;58.60
32173;DHT22;18679;45.190;5.722;2023-12-20T13:35:59;12.60;58.20
32173;DHT22;18679;45.190;5.722;2023-12-20T13:39:00;12.70;58.10
32173;DHT22;18679;45.190;5.722;2023-12-20T13:42:02;12.80;57.80
32173;DHT22;18679;45.190;5.722;2023-12-20T13:45:04;13.00;57.30
32173;DHT22;18679;45.190;5.722;2023-12-20T13:48:05;13.10;56.80
32173;DHT22;18679;45.190;5.722;2023-12-20T13:51:06;13.20;56.70
32173;DHT22;18679;45.190;5.722;2023-12-20T13:54:08;13.20;56.60
32173;DHT22;18679;45.190;5.722;2023-12-20T13:57:09;13.30;56.80
32173;DHT22;18679;45.190;5.722;2023-12-20T14:00:10;13.30;57.00
32173;DHT22;18679;45.190;5.722;2023-12-20T14:03:15;13.20;57.00
32173;DHT22;18679;45.190;5.722;2023-12-20T14:06:16;12.90;57.40
32173;DHT22;18679;45.190;5.722;2023-12-20T14:09:18;12.70;58.00
32173;DHT22;18679;45.190;5.722;2023-12-20T14:12:20;12.50;58.40
32173;DHT22;18679;45.190;5.722;2023-12-20T14:15:21;12.40;58.40
32173;DHT22;18679;45.190;5.722;2023-12-20T14:18:22;12.40;58.20
32173;DHT22;18679;45.190;5.722;2023-12-20T14:21:24;12.30;58.00
32173;DHT22;18679;45.190;5.722;2023-12-20T14:24:26;12.10;58.00
32173;DHT22;18679;45.190;5.722;2023-12-20T14:27:27;12.00;57.90
32173;DHT22;18679;45.190;5.722;2023-12-20T14:30:30;11.90;57.90
32173;DHT22;18679;45.190;5.722;2023-12-20T14:33:31;11.80;58.00
32173;DHT22;18679;45.190;5.722;2023-12-20T14:36:33;11.60;57.80
32173;DHT22;18679;45.190;5.722;2023-12-20T14:39:34;11.60;57.80
32173;DHT22;18679;45.190;5.722;2023-12-20T14:42:42;11.50;57.40
32173;DHT22;18679;45.190;5.722;2023-12-20T14:45:44;11.50;57.20
32173;DHT22;18679;45.190;5.722;2023-12-20T14:48:45;11.40;57.20
32173;DHT22;18679;45.190;5.722;2023-12-20T14:51:45;11.40;57.20
32173;DHT22;18679;45.190;5.722;2023-12-20T14:54:48;11.40;57.10
32173;DHT22;18679;45.190;5.722;2023-12-20T14:57:49;11.40;57.20
32173;DHT22;18679;45.190;5.722;2023-12-20T15:00:50;11.40;56.70
32173;DHT22;18679;45.190;5.722;2023-12-20T15:03:51;11.50;56.50
32173;DHT22;18679;45.190;5.722;2023-12-20T15:06:52;11.50;56.10
32173;DHT22;18679;45.190;5.722;2023-12-20T15:09:53;11.50;55.80
32173;DHT22;18679;45.190;5.722;2023-12-20T15:12:58;11.40;55.50
32173;DHT22;18679;45.190;5.722;2023-12-20T15:15:59;11.50;55.30
32173;DHT22;18679;45.190;5.722;2023-12-20T15:19:00;11.40;54.80
32173;DHT22;18679;45.190;5.722;2023-12-20T15:22:01;11.50;54.80
32173;DHT22;18679;45.190;5.722;2023-12-20T15:25:03;11.50;54.30
32173;DHT22;18679;45.190;5.722;2023-12-20T15:28:06;11.50;54.20
32173;DHT22;18679;45.190;5.722;2023-12-20T15:31:07;11.50;53.10
32173;DHT22;18679;45.190;5.722;2023-12-20T15:34:08;11.50;53.00
32173;DHT22;18679;45.190;5.722;2023-12-20T15:37:09;11.50;53.00
32173;DHT22;18679;45.190;5.722;2023-12-20T15:40:10;11.50;53.10
32173;DHT22;18679;45.190;5.722;2023-12-20T15:43:11;11.50;53.30
32173;DHT22;18679;45.190;5.722;2023-12-20T15:46:14;11.50;53.30
32173;DHT22;18679;45.190;5.722;2023-12-20T15:49:16;11.50;53.20
32173;DHT22;18679;45.190;5.722;2023-12-20T15:52:18;11.50;53.20
32173;DHT22;18679;45.190;5.722;2023-12-20T15:55:19;11.40;53.30
32173;DHT22;18679;45.190;5.722;2023-12-20T15:58:20;11.40;53.40
32173;DHT22;18679;45.190;5.722;2023-12-20T16:01:21;11.40;53.40
32173;DHT22;18679;45.190;5.722;2023-12-20T16:04:22;11.40;53.10
32173;DHT22;18679;45.190;5.722;2023-12-20T16:07:24;11.40;52.80
32173;DHT22;18679;45.190;5.722;2023-12-20T16:10:25;11.40;52.80
32173;DHT22;18679;45.190;5.722;2023-12-20T16:13:25;11.40;52.90
32173;DHT22;18679;45.190;5.722;2023-12-20T16:16:27;11.40;52.90
32173;DHT22;18679;45.190;5.722;2023-12-20T16:19:28;11.40;53.00
32173;DHT22;18679;45.190;5.722;2023-12-20T16:22:29;11.40;53.00
32173;DHT22;18679;45.190;5.722;2023-12-20T16:25:30;11.40;53.00
32173;DHT22;18679;45.190;5.722;2023-12-20T16:28:31;11.30;53.20
32173;DHT22;18679;45.190;5.722;2023-12-20T16:31:32;11.30;53.20
32173;DHT22;18679;45.190;5.722;2023-12-20T16:34:33;11.30;53.50
32173;DHT22;18679;45.190;5.722;2023-12-20T16:37:33;11.20;53.50
32173;DHT22;18679;45.190;5.722;2023-12-20T16:40:38;11.20;53.80
32173;DHT22;18679;45.190;5.722;2023-12-20T16:43:39;11.40;53.80
32173;DHT22;18679;45.190;5.722;2023-12-20T16:46:40;11.20;53.70
32173;DHT22;18679;45.190;5.722;2023-12-20T16:49:42;11.20;53.70
32173;DHT22;18679;45.190;5.722;2023-12-20T16:52:43;11.20;53.70
32173;DHT22;18679;45.190;5.722;2023-12-20T16:55:44;11.20;53.80
32173;DHT22;18679;45.190;5.722;2023-12-20T16:58:45;11.20;53.80
32173;DHT22;18679;45.190;5.722;2023-12-20T17:01:46;11.20;53.80
32173;DHT22;18679;45.190;5.722;2023-12-20T17:04:47;11.20;53.80
32173;DHT22;18679;45.190;5.722;2023-12-20T17:07:49;11.20;53.90
32173;DHT22;18679;45.190;5.722;2023-12-20T17:10:50;11.10;53.70
32173;DHT22;18679;45.190;5.722;2023-12-20T17:13:51;11.10;53.60
32173;DHT22;18679;45.190;5.722;2023-12-20T17:16:53;11.10;53.50
32173;DHT22;18679;45.190;5.722;2023-12-20T17:19:57;11.20;53.50
32173;DHT22;18679;45.190;5.722;2023-12-20T17:22:57;11.20;53.50
32173;DHT22;18679;45.190;5.722;2023-12-20T17:25:59;11.10;53.40
32173;DHT22;18679;45.190;5.722;2023-12-20T17:29:00;11.10;53.40
32173;DHT22;18679;45.190;5.722;2023-12-20T17:32:01;11.10;53.40
32173;DHT22;18679;45.190;5.722;2023-12-20T17:35:02;11.10;53.40
32173;DHT22;18679;45.190;5.722;2023-12-20T17:38:05;11.10;53.40
32173;DHT22;18679;45.190;5.722;2023-12-20T17:41:05;11.10;54.00
32173;DHT22;18679;45.190;5.722;2023-12-20T17:44:07;11.10;53.40
32173;DHT22;18679;45.190;5.722;2023-12-20T17:47:08;11.10;53.30
32173;DHT22;18679;45.190;5.722;2023-12-20T17:50:10;11.00;53.40
32173;DHT22;18679;45.190;5.722;2023-12-20T17:53:11;11.00;53.30
32173;DHT22;18679;45.190;5.722;2023-12-20T17:56:11;11.00;53.40
32173;DHT22;18679;45.190;5.722;2023-12-20T17:59:13;11.00;53.30
32173;DHT22;18679;45.190;5.722;2023-12-20T18:02:14;11.10;53.20
32173;DHT22;18679;45.190;5.722;2023-12-20T18:05:15;11.10;53.10
32173;DHT22;18679;45.190;5.722;2023-12-20T18:08:16;11.00;52.70
32173;DHT22;18679;45.190;5.722;2023-12-20T18:11:18;11.00;52.80
32173;DHT22;18679;45.190;5.722;2023-12-20T18:14:20;11.10;52.90
32173;DHT22;18679;45.190;5.722;2023-12-20T18:17:22;11.10;52.80
32173;DHT22;18679;45.190;5.722;2023-12-20T18:20:23;11.10;52.80
32173;DHT22;18679;45.190;5.722;2023-12-20T18:23:26;11.00;52.70
32173;DHT22;18679;45.190;5.722;2023-12-20T18:26:27;11.00;52.80
32173;DHT22;18679;45.190;5.722;2023-12-20T18:29:27;11.00;53.00
32173;DHT22;18679;45.190;5.722;2023-12-20T18:32:28;11.00;53.70
32173;DHT22;18679;45.190;5.722;2023-12-20T18:35:29;11.00;53.10
32173;DHT22;18679;45.190;5.722;2023-12-20T18:38:32;11.00;53.10
32173;DHT22;18679;45.190;5.722;2023-12-20T18:41:34;10.90;53.00
32173;DHT22;18679;45.190;5.722;2023-12-20T18:44:35;10.90;53.10
32173;DHT22;18679;45.190;5.722;2023-12-20T18:47:37;10.90;52.90
32173;DHT22;18679;45.190;5.722;2023-12-20T18:50:38;10.90;52.80
32173;DHT22;18679;45.190;5.722;2023-12-20T18:53:39;11.00;52.80
32173;DHT22;18679;45.190;5.722;2023-12-20T18:56:39;10.90;52.80
32173;DHT22;18679;45.190;5.722;2023-12-20T18:59:43;10.90;52.70
32173;DHT22;18679;45.190;5.722;2023-12-20T19:02:43;10.90;52.80
32173;DHT22;18679;45.190;5.722;2023-12-20T19:05:44;11.00;52.90
32173;DHT22;18679;45.190;5.722;2023-12-20T19:08:45;10.90;52.80
32173;DHT22;18679;45.190;5.722;2023-12-20T19:11:54;10.90;52.90
32173;DHT22;18679;45.190;5.722;2023-12-20T19:14:55;10.90;52.90
32173;DHT22;18679;45.190;5.722;2023-12-20T19:17:56;10.90;52.90
32173;DHT22;18679;45.190;5.722;2023-12-20T19:20:57;10.80;53.00